Time;durP1;ratioP1;P1;durP2;ratioP2;P2;SDS_P1;SDS_P2;PMS_P1;PMS_P2;Temp;Humidity;BMP_temperature;BMP_pressure;BME280_temperature;BME280_humidity;BME280_pressure;Samples;Min_cycle;Max_cycle;Signal;HPM_P1;HPM_P2
2023/05/13 00:00:40;;;;;;;7.27;4.00;;;13.00;99.90;;;;;;5096369;28;20085;-46
2023/05/13 00:03:06;;;;;;;11.18;6.20;;;12.90;99.90;;;;;;5096292;28;20052;-46
2023/05/13 00:05:32;;;;;;;6.65;3.50;;;12.90;99.90;;;;;;5096197;28;20040;-45
2023/05/13 00:08:00;;;;;;;6.63;3.77;;;12.90;99.90;;;;;;5096218;28;20047;-45
2023/05/13 00:10:26;;;;;;;6.30;3.65;;;12.80;99.90;;;;;;5096242;28;20040;-44
2023/05/13 00:12:52;;;;;;;5.55;3.00;;;12.80;99.90;;;;;;5096269;28;20051;-45
2023/05/13 00:15:18;;;;;;;7.25;3.53;;;12.80;99.90;;;;;;5096130;28;20173;-45
2023/05/13 00:17:43;;;;;;;6.93;3.80;;;12.80;99.90;;;;;;5095946;28;20472;-45
2023/05/13 00:20:09;;;;;;;5.70;3.50;;;12.80;99.90;;;;;;5096118;28;20047;-45
2023/05/13 00:22:35;;;;;;;5.97;3.33;;;12.80;99.90;;;;;;5095469;28;20058;-46
2023/05/13 00:25:01;;;;;;;8.07;3.58;;;12.80;99.90;;;;;;5095978;28;20059;-45
2023/05/13 00:27:26;;;;;;;5.53;3.20;;;12.80;99.90;;;;;;5094858;28;20126;-45
2023/05/13 00:29:52;;;;;;;6.87;3.93;;;12.80;99.90;;;;;;5095947;28;20040;-45
2023/05/13 00:32:18;;;;;;;7.25;3.42;;;12.80;99.90;;;;;;5095711;28;20059;-45
2023/05/13 00:34:44;;;;;;;6.20;3.40;;;12.80;99.90;;;;;;5095769;28;20384;-46
2023/05/13 00:37:10;;;;;;;6.80;3.67;;;12.80;99.90;;;;;;5095565;28;20316;-45
2023/05/13 00:39:36;;;;;;;8.05;3.70;;;12.80;99.90;;;;;;5095878;28;20044;-45
2023/05/13 00:42:04;;;;;;;7.40;3.93;;;12.70;99.90;;;;;;5095716;28;20040;-45
2023/05/13 00:44:30;;;;;;;7.40;4.03;;;12.70;99.90;;;;;;5094715;28;20048;-45
2023/05/13 00:46:56;;;;;;;7.77;3.53;;;12.80;99.90;;;;;;5095551;28;20067;-46
2023/05/13 00:49:22;;;;;;;7.97;3.70;;;12.80;99.90;;;;;;5095484;28;20397;-45
2023/05/13 00:51:49;;;;;;;6.07;3.63;;;12.70;99.90;;;;;;5095408;28;20346;-45
2023/05/13 00:54:15;;;;;;;6.53;3.70;;;12.70;99.90;;;;;;5095420;28;20040;-45
2023/05/13 00:56:41;;;;;;;6.22;3.65;;;12.60;99.90;;;;;;5095466;28;20130;-45
2023/05/13 00:59:06;;;;;;;8.20;4.13;;;12.50;99.90;;;;;;5095451;28;20050;-45
2023/05/13 01:01:32;;;;;;;7.07;4.27;;;12.30;99.90;;;;;;5095243;28;20067;-47
2023/05/13 01:04:12;;;;;;;7.97;4.07;;;12.30;99.90;;;;;;5095185;28;20371;-45
2023/05/13 01:06:52;;;;;;;6.47;3.47;;;12.30;99.90;;;;;;5095284;28;20047;-49
2023/05/13 01:09:37;;;;;;;7.97;4.05;;;12.30;99.90;;;;;;5095082;28;20040;-49
2023/05/13 01:12:09;;;;;;;6.10;3.50;;;12.40;99.90;;;;;;5095203;28;20051;-48
2023/05/13 01:14:53;;;;;;;6.78;4.18;;;12.30;99.90;;;;;;5094850;28;20426;-49
2023/05/13 01:17:31;;;;;;;8.52;4.00;;;12.30;99.90;;;;;;5093641;28;20501;-47
2023/05/13 01:19:59;;;;;;;7.32;3.70;;;12.40;99.90;;;;;;5094948;28;20127;-48
2023/05/13 01:22:25;;;;;;;5.78;3.70;;;12.30;99.90;;;;;;5094888;28;20055;-48
2023/05/13 01:24:50;;;;;;;8.97;3.77;;;12.40;99.90;;;;;;5094657;28;20044;-46
2023/05/13 01:27:16;;;;;;;7.07;4.40;;;12.40;99.90;;;;;;5094672;28;20126;-48
2023/05/13 01:29:43;;;;;;;6.68;3.72;;;12.40;99.90;;;;;;5094763;28;20051;-47
2023/05/13 01:32:09;;;;;;;7.70;4.65;;;12.40;99.90;;;;;;5093480;28;20051;-47
2023/05/13 01:34:37;;;;;;;7.60;4.13;;;12.40;99.90;;;;;;5093898;28;20051;-48
2023/05/13 01:37:03;;;;;;;7.97;3.95;;;12.40;99.90;;;;;;5094519;28;20044;-47
2023/05/13 01:39:30;;;;;;;7.35;3.88;;;12.40;99.90;;;;;;5094416;28;20441;-45
2023/05/13 01:41:56;;;;;;;7.88;4.28;;;12.40;99.90;;;;;;5094456;28;20051;-47
2023/05/13 01:44:22;;;;;;;7.18;4.32;;;12.40;99.90;;;;;;5094527;28;20119;-46
2023/05/13 01:46:49;;;;;;;7.40;3.85;;;12.40;99.90;;;;;;5094445;28;20132;-45
2023/05/13 01:49:15;;;;;;;;;;;12.40;99.90;;;;;;5094773;28;20052;-45
2023/05/13 01:51:41;;;;;;;6.25;3.85;;;12.40;99.90;;;;;;5094186;28;20018;-45
2023/05/13 01:54:06;;;;;;;8.20;4.70;;;12.40;99.90;;;;;;5094246;28;20131;-47
2023/05/13 01:56:32;;;;;;;7.38;4.10;;;12.40;99.90;;;;;;5094503;28;20569;-45
2023/05/13 01:58:58;;;;;;;7.90;4.50;;;12.40;99.90;;;;;;5093789;28;20044;-45
2023/05/13 02:01:24;;;;;;;7.93;4.25;;;12.40;99.90;;;;;;5093672;28;20399;-45
2023/05/13 02:03:50;;;;;;;7.43;4.13;;;12.30;99.90;;;;;;5094092;28;20395;-44
2023/05/13 02:06:15;;;;;;;6.63;3.70;;;12.30;99.90;;;;;;5094189;28;20107;-45
2023/05/13 02:08:41;;;;;;;7.63;4.10;;;12.30;99.90;;;;;;5093001;28;20052;-44
2023/05/13 02:11:07;;;;;;;7.18;4.25;;;12.20;99.90;;;;;;5093707;28;20047;-44
2023/05/13 02:13:33;;;;;;;7.40;4.72;;;12.20;99.90;;;;;;5093974;28;20480;-45
2023/05/13 02:15:59;;;;;;;9.48;4.35;;;12.00;99.90;;;;;;5094036;28;20044;-44
2023/05/13 02:18:25;;;;;;;9.25;4.82;;;11.90;99.90;;;;;;5092757;28;20047;-45
2023/05/13 02:20:51;;;;;;;8.05;4.00;;;11.90;99.90;;;;;;5093969;28;20039;-46
2023/05/13 02:23:16;;;;;;;9.83;4.77;;;11.80;99.90;;;;;;5093827;28;20433;-45
2023/05/13 02:25:43;;;;;;;9.00;4.97;;;11.80;99.90;;;;;;5093662;28;20772;-44
2023/05/13 02:28:09;;;;;;;8.43;4.75;;;11.80;99.90;;;;;;5093847;28;20105;-45
2023/05/13 02:30:35;;;;;;;8.80;4.80;;;11.80;99.90;;;;;;5093972;28;20403;-45
2023/05/13 02:33:01;;;;;;;7.47;4.38;;;11.80;99.90;;;;;;5094209;28;20056;-45
2023/05/13 02:35:30;;;;;;;7.90;4.43;;;11.90;99.90;;;;;;5093670;28;20399;-45
2023/05/13 02:37:56;;;;;;;6.80;4.15;;;11.90;99.90;;;;;;5093572;28;20086;-45
2023/05/13 02:40:22;;;;;;;8.18;4.45;;;11.90;99.90;;;;;;5094045;28;20044;-44
2023/05/13 02:42:47;;;;;;;7.90;4.53;;;11.90;99.90;;;;;;5093753;28;20040;-44
2023/05/13 02:45:13;;;;;;;7.77;4.40;;;11.90;99.90;;;;;;5093728;28;20486;-44
2023/05/13 02:47:39;;;;;;;6.47;4.10;;;11.90;99.90;;;;;;5097679;28;20135;-45
2023/05/13 02:50:06;;;;;;;6.77;3.97;;;11.90;99.90;;;;;;5097851;28;20054;-44
2023/05/13 02:52:37;;;;;;;7.95;4.10;;;11.80;99.90;;;;;;5096728;28;20044;-44
2023/05/13 02:55:05;;;;;;;7.90;3.92;;;11.80;99.90;;;;;;5098089;28;20052;-45
2023/05/13 02:57:31;;;;;;;8.38;4.55;;;11.70;99.90;;;;;;5097768;28;20040;-46
2023/05/13 02:59:57;;;;;;;8.68;5.03;;;11.60;99.90;;;;;;5097643;28;20040;-45
2023/05/13 03:02:22;;;;;;;10.17;5.37;;;11.60;99.90;;;;;;5097566;28;20142;-45
2023/05/13 03:04:48;;;;;;;7.13;4.47;;;11.60;99.90;;;;;;5097633;28;20052;-45
2023/05/13 03:07:14;;;;;;;8.20;4.87;;;11.60;99.90;;;;;;5096490;28;20479;-45
2023/05/13 03:09:41;;;;;;;10.07;5.30;;;11.60;99.90;;;;;;5097184;28;20127;-45
2023/05/13 03:12:07;;;;;;;9.57;5.28;;;11.60;99.90;;;;;;5097930;28;20403;-45
2023/05/13 03:14:36;;;;;;;9.23;5.13;;;11.60;99.90;;;;;;5097436;28;20052;-46
2023/05/13 03:17:02;;;;;;;8.57;5.32;;;11.60;99.90;;;;;;5097349;28;20047;-45
2023/05/13 03:19:28;;;;;;;;;;;11.70;99.90;;;;;;5097740;28;20123;-44
2023/05/13 03:21:53;;;;;;;8.70;5.15;;;11.60;99.90;;;;;;5097121;28;19966;-45
2023/05/13 03:24:19;;;;;;;9.40;5.23;;;11.70;99.90;;;;;;5097271;28;20048;-45
2023/05/13 03:26:45;;;;;;;7.50;5.03;;;11.60;99.90;;;;;;5096194;28;20087;-44
2023/05/13 03:29:10;;;;;;;9.33;5.33;;;11.60;99.90;;;;;;5096066;28;20047;-45
2023/05/13 03:31:36;;;;;;;10.13;5.23;;;11.70;99.90;;;;;;5096716;28;20070;-45
2023/05/13 03:34:02;;;;;;;10.20;5.90;;;11.70;99.90;;;;;;5096886;28;20094;-44
2023/05/13 03:36:28;;;;;;;8.57;5.37;;;11.60;99.90;;;;;;5096875;28;20091;-46
2023/05/13 03:38:53;;;;;;;8.70;5.87;;;11.60;99.90;;;;;;5095951;28;20040;-45
2023/05/13 03:41:19;;;;;;;8.63;5.27;;;11.60;99.90;;;;;;5096970;28;20482;-45
2023/05/13 03:43:45;;;;;;;9.70;5.75;;;11.60;99.90;;;;;;5096853;28;20036;-45
2023/05/13 03:46:11;;;;;;;9.50;5.95;;;11.70;99.90;;;;;;5096655;28;20043;-45
2023/05/13 03:48:37;;;;;;;12.23;6.00;;;11.70;99.90;;;;;;5096646;28;20129;-44
2023/05/13 03:51:03;;;;;;;9.60;5.43;;;11.70;99.90;;;;;;5096583;28;20085;-45
2023/05/13 03:53:28;;;;;;;9.93;5.73;;;11.70;99.90;;;;;;5096674;28;20083;-45
2023/05/13 03:55:54;;;;;;;10.25;5.65;;;11.70;99.90;;;;;;5097004;28;20040;-45
2023/05/13 03:58:21;;;;;;;9.40;5.50;;;11.60;99.90;;;;;;5094902;28;20546;-45
2023/05/13 04:00:47;;;;;;;8.90;5.88;;;11.60;99.90;;;;;;5096352;28;20127;-44
2023/05/13 04:03:14;;;;;;;9.50;5.40;;;11.60;99.90;;;;;;5096571;28;20131;-45
2023/05/13 04:05:40;;;;;;;10.30;4.95;;;11.60;99.90;;;;;;5096376;28;20438;-45
2023/05/13 04:08:06;;;;;;;8.02;5.03;;;11.60;99.90;;;;;;5095197;28;20043;-45
2023/05/13 04:10:32;;;;;;;8.43;5.07;;;11.60;99.90;;;;;;5096225;28;20075;-48
2023/05/13 04:12:58;;;;;;;10.60;5.78;;;11.60;99.90;;;;;;5096179;28;20105;-48
2023/05/13 04:15:23;;;;;;;8.93;5.23;;;11.60;99.90;;;;;;5096133;28;20402;-45
2023/05/13 04:17:50;;;;;;;10.00;5.13;;;11.60;99.90;;;;;;5096189;28;20126;-47
2023/05/13 04:20:15;;;;;;;8.15;4.93;;;11.60;99.90;;;;;;5095934;28;20146;-47
2023/05/13 04:22:41;;;;;;;8.10;5.00;;;11.60;99.90;;;;;;5095152;28;20549;-45
2023/05/13 04:25:07;;;;;;;11.23;6.00;;;11.60;99.90;;;;;;5096104;28;20044;-48
2023/05/13 04:27:33;;;;;;;8.93;4.97;;;11.70;99.90;;;;;;5095912;28;20044;-48
2023/05/13 04:29:58;;;;;;;9.83;5.97;;;11.70;99.90;;;;;;5095949;28;20126;-45
2023/05/13 04:32:24;;;;;;;10.87;5.47;;;11.70;99.90;;;;;;5095951;28;20567;-48
2023/05/13 04:34:51;;;;;;;8.27;4.33;;;11.70;99.90;;;;;;5095875;28;20411;-46
2023/05/13 04:37:17;;;;;;;8.77;4.78;;;11.80;99.90;;;;;;5096124;28;20399;-45
2023/05/13 04:39:45;;;;;;;8.48;5.43;;;11.80;99.90;;;;;;5094640;28;20036;-47
2023/05/13 04:42:11;;;;;;;9.98;5.15;;;11.80;99.90;;;;;;5095657;28;20059;-47
2023/05/13 04:44:37;;;;;;;9.85;5.35;;;11.80;99.90;;;;;;5094714;28;20056;-47
2023/05/13 04:47:03;;;;;;;10.57;4.87;;;11.80;99.90;;;;;;5095668;28;20048;-46
2023/05/13 04:49:28;;;;;;;9.03;4.70;;;11.80;99.90;;;;;;5094058;28;20044;-46
2023/05/13 04:51:54;;;;;;;7.63;4.37;;;11.90;99.90;;;;;;5095523;28;20043;-45
2023/05/13 04:54:20;;;;;;;9.02;4.93;;;11.90;99.90;;;;;;5095501;28;20082;-45
2023/05/13 04:56:45;;;;;;;7.90;4.57;;;11.90;99.90;;;;;;5095656;28;20048;-45
2023/05/13 04:59:11;;;;;;;8.70;4.53;;;12.00;99.90;;;;;;5095397;28;20052;-45
2023/05/13 05:01:37;;;;;;;8.60;4.97;;;12.00;99.90;;;;;;5095453;28;20048;-45
2023/05/13 05:04:03;;;;;;;9.37;4.60;;;12.00;99.90;;;;;;5095198;28;20711;-44
2023/05/13 05:06:30;;;;;;;8.15;4.70;;;12.10;99.90;;;;;;5095653;28;20056;-45
2023/05/13 05:08:56;;;;;;;8.52;4.93;;;12.10;99.90;;;;;;5094523;28;20508;-44
2023/05/13 05:11:21;;;;;;;8.98;4.63;;;12.20;99.90;;;;;;5093812;28;20055;-45
2023/05/13 05:13:47;;;;;;;8.20;4.80;;;12.20;99.90;;;;;;5095319;28;20376;-46
2023/05/13 05:16:12;;;;;;;7.97;4.20;;;12.30;99.90;;;;;;5094950;28;20472;-45
2023/05/13 05:18:40;;;;;;;7.13;4.40;;;12.40;99.90;;;;;;5094849;28;20048;-44
2023/05/13 05:21:06;;;;;;;7.57;4.72;;;12.50;99.90;;;;;;5094957;28;20040;-45
2023/05/13 05:23:31;;;;;;;8.90;4.25;;;12.50;99.90;;;;;;5094909;28;20493;-45
2023/05/13 05:25:59;;;;;;;7.30;4.67;;;12.60;99.90;;;;;;5094869;28;20052;-45
2023/05/13 05:28:24;;;;;;;8.65;4.82;;;12.70;99.90;;;;;;5094707;28;20282;-44
2023/05/13 05:30:50;;;;;;;7.77;4.87;;;12.80;99.90;;;;;;5094388;28;20447;-44
2023/05/13 05:33:17;;;;;;;8.77;5.05;;;12.90;99.90;;;;;;5094528;28;20098;-45
2023/05/13 05:35:43;;;;;;;7.75;4.63;;;13.00;99.90;;;;;;5094696;28;20047;-45
2023/05/13 05:38:10;;;;;;;8.90;4.78;;;13.00;99.90;;;;;;5094833;28;20043;-45
2023/05/13 05:40:41;;;;;;;7.97;4.80;;;13.10;99.90;;;;;;5093446;28;20048;-46
2023/05/13 05:43:07;;;;;;;9.10;4.30;;;13.30;99.90;;;;;;5094604;28;20047;-44
2023/05/13 05:45:39;;;;;;;8.77;4.93;;;13.50;99.90;;;;;;5094438;28;20552;-45
2023/05/13 05:48:05;;;;;;;7.93;4.72;;;14.00;99.90;;;;;;5094462;28;20048;-44
2023/05/13 05:50:32;;;;;;;9.00;5.43;;;14.50;99.90;;;;;;5094346;28;20438;-45
2023/05/13 05:52:58;;;;;;;9.00;4.45;;;14.70;99.90;;;;;;5093378;28;20105;-44
2023/05/13 05:55:27;;;;;;;9.23;4.85;;;14.70;99.90;;;;;;5094398;28;20491;-45
2023/05/13 05:57:56;;;;;;;7.50;4.65;;;14.90;99.90;;;;;;5094225;28;20040;-45
2023/05/13 06:00:23;;;;;;;8.43;5.00;;;15.20;99.90;;;;;;5093874;28;20491;-45
2023/05/13 06:02:49;;;;;;;10.93;5.35;;;15.70;99.90;;;;;;5094265;28;20066;-45
2023/05/13 06:05:15;;;;;;;8.10;4.78;;;16.00;99.90;;;;;;5094146;28;20559;-46
2023/05/13 06:07:41;;;;;;;8.10;4.55;;;16.10;99.90;;;;;;5094376;28;20458;-47
2023/05/13 06:10:07;;;;;;;7.87;4.47;;;16.00;99.90;;;;;;5093892;28;20040;-46
2023/05/13 06:12:33;;;;;;;6.70;4.65;;;16.00;99.90;;;;;;5093931;28;20071;-45
2023/05/13 06:14:59;;;;;;;7.85;4.68;;;16.00;99.90;;;;;;5093720;28;20048;-45
2023/05/13 06:17:25;;;;;;;7.78;4.65;;;16.20;99.90;;;;;;5093992;28;20039;-46
2023/05/13 06:19:51;;;;;;;6.43;4.30;;;16.60;99.90;;;;;;5093997;28;20055;-46
2023/05/13 06:22:16;;;;;;;8.07;3.93;;;16.90;99.90;;;;;;5093596;28;20281;-46
2023/05/13 06:24:43;;;;;;;6.88;4.18;;;17.10;99.90;;;;;;5092986;28;20379;-46
2023/05/13 06:27:12;;;;;;;7.70;4.20;;;17.10;99.90;;;;;;5093646;28;20054;-45
2023/05/13 06:29:38;;;;;;;7.13;4.15;;;17.00;99.90;;;;;;5093432;28;20040;-45
2023/05/13 06:32:06;;;;;;;9.45;4.80;;;16.90;99.90;;;;;;5094085;28;20052;-50
2023/05/13 06:34:32;;;;;;;7.55;4.63;;;17.20;99.90;;;;;;5093789;28;20138;-48
2023/05/13 06:36:57;;;;;;;8.43;4.57;;;17.50;99.90;;;;;;5094043;28;20123;-46
2023/05/13 06:39:23;;;;;;;6.80;4.15;;;17.50;99.90;;;;;;5092613;28;20048;-46
2023/05/13 06:41:49;;;;;;;9.73;4.60;;;17.30;99.90;;;;;;5093802;28;20052;-49
2023/05/13 06:44:15;;;;;;;6.87;4.37;;;17.10;99.90;;;;;;5093569;28;20542;-45
2023/05/13 06:46:41;;;;;;;6.50;4.32;;;16.90;99.90;;;;;;5093747;28;20479;-49
2023/05/13 06:49:06;;;;;;;7.25;4.60;;;16.70;99.90;;;;;;5092533;28;20040;-49
2023/05/13 06:51:33;;;;;;;7.50;4.55;;;16.70;99.90;;;;;;5093582;28;20118;-47
2023/05/13 06:53:59;;;;;;;6.75;3.78;;;16.60;99.90;;;;;;5093653;28;20051;-49
2023/05/13 06:56:25;;;;;;;8.05;4.20;;;16.50;99.90;;;;;;5093564;28;20540;-46
2023/05/13 06:58:51;;;;;;;8.38;3.97;;;16.50;99.90;;;;;;5093384;28;20070;-47
2023/05/13 07:01:17;;;;;;;;;;;16.50;99.90;;;;;;5094009;28;20047;-46
2023/05/13 07:03:44;;;;;;;8.30;4.07;;;16.50;99.90;;;;;;5094113;28;19920;-46
2023/05/13 07:06:11;;;;;;;5.85;3.67;;;16.70;99.90;;;;;;5092566;28;20051;-47
2023/05/13 07:08:36;;;;;;;6.60;3.78;;;17.30;99.90;;;;;;5093459;28;20132;-47
2023/05/13 07:11:02;;;;;;;5.93;3.70;;;17.80;99.90;;;;;;5093364;28;20487;-47
2023/05/13 07:13:29;;;;;;;8.05;4.65;;;18.10;99.90;;;;;;5093399;28;20043;-48
2023/05/13 07:15:54;;;;;;;6.95;3.47;;;18.40;99.90;;;;;;5093383;28;20047;-50
2023/05/13 07:18:20;;;;;;;7.25;3.92;;;18.70;99.90;;;;;;5093629;28;20055;-48
2023/05/13 07:20:46;;;;;;;6.07;3.95;;;18.60;99.90;;;;;;5092455;28;20055;-51
2023/05/13 07:23:11;;;;;;;6.07;3.80;;;18.60;99.90;;;;;;5093312;28;20055;-48
2023/05/13 07:25:37;;;;;;;7.75;3.58;;;18.50;99.90;;;;;;5093326;28;20135;-47
2023/05/13 07:28:03;;;;;;;6.40;3.50;;;18.20;99.90;;;;;;5093146;28;20040;-48
2023/05/13 07:30:29;;;;;;;7.00;4.00;;;17.90;99.90;;;;;;5093650;28;20468;-51
2023/05/13 07:32:55;;;;;;;7.07;3.90;;;17.80;99.90;;;;;;5094630;28;20056;-49
2023/05/13 07:35:21;;;;;;;6.07;3.83;;;17.70;99.90;;;;;;5097177;28;20494;-50
2023/05/13 07:37:46;;;;;;;6.07;3.72;;;17.60;99.90;;;;;;5096941;28;20126;-49
2023/05/13 07:40:12;;;;;;;6.43;3.90;;;17.50;99.90;;;;;;5096643;28;20032;-50
2023/05/13 07:42:39;;;;;;;7.18;3.72;;;17.30;99.90;;;;;;5096517;28;20342;-49
2023/05/13 07:45:06;;;;;;;7.97;4.40;;;17.20;99.90;;;;;;5096925;28;20044;-49
2023/05/13 07:47:32;;;;;;;7.40;3.70;;;17.10;99.90;;;;;;5097018;28;20051;-48
2023/05/13 07:49:59;;;;;;;5.45;3.35;;;17.00;99.90;;;;;;5096602;28;20071;-50
2023/05/13 07:52:25;;;;;;;8.88;4.07;;;17.00;99.90;;;;;;5096683;28;20044;-47
2023/05/13 07:54:51;;;;;;;6.70;3.70;;;17.00;99.90;;;;;;5096657;28;20051;-46
2023/05/13 07:57:17;;;;;;;6.60;4.00;;;17.00;99.90;;;;;;5096567;28;20506;-48
2023/05/13 07:59:43;;;;;;;5.75;3.72;;;17.00;99.90;;;;;;5095443;28;20040;-48
2023/05/13 08:02:10;;;;;;;7.43;4.10;;;17.00;99.90;;;;;;5096509;28;20048;-46
2023/05/13 08:04:35;;;;;;;7.97;3.85;;;17.00;99.90;;;;;;5096424;28;20090;-48
2023/05/13 08:07:01;;;;;;;8.02;3.88;;;17.10;99.90;;;;;;5096271;28;20052;-47
2023/05/13 08:09:27;;;;;;;6.75;3.50;;;17.20;99.90;;;;;;5096171;28;20105;-46
2023/05/13 08:11:53;;;;;;;7.22;3.58;;;17.20;99.90;;;;;;5096121;28;20048;-47
2023/05/13 08:14:19;;;;;;;7.90;4.70;;;17.20;99.90;;;;;;5096330;28;20048;-48
2023/05/13 08:16:45;;;;;;;7.07;3.53;;;17.20;99.90;;;;;;5096514;28;20051;-46
2023/05/13 08:19:13;;;;;;;7.85;4.03;;;17.20;99.90;;;;;;5096465;28;20052;-47
2023/05/13 08:21:38;;;;;;;5.97;3.65;;;17.30;99.90;;;;;;5096293;28;20076;-48
2023/05/13 08:24:05;;;;;;;7.35;3.55;;;17.30;99.90;;;;;;5095933;28;20541;-48
2023/05/13 08:26:31;;;;;;;;;;;17.30;99.90;;;;;;5096366;28;20048;-47
2023/05/13 08:28:56;;;;;;;6.78;4.13;;;17.40;99.90;;;;;;5095976;28;19927;-47
2023/05/13 08:31:23;;;;;;;8.68;3.60;;;17.40;99.90;;;;;;5096124;28;20548;-48
2023/05/13 08:33:50;;;;;;;6.53;3.60;;;17.50;99.90;;;;;;5095878;28;20131;-48
2023/05/13 08:36:16;;;;;;;7.70;3.92;;;17.50;99.90;;;;;;5095794;28;20115;-46
2023/05/13 08:38:42;;;;;;;7.20;3.75;;;17.60;99.90;;;;;;5095877;28;20548;-47
2023/05/13 08:41:11;;;;;;;7.03;3.33;;;17.60;99.90;;;;;;5095745;28;20071;-47
2023/05/13 08:43:38;;;;;;;5.70;3.67;;;17.60;99.90;;;;;;5094543;28;20131;-46
2023/05/13 08:46:08;;;;;;;7.00;3.67;;;17.60;99.90;;;;;;5095682;28;20080;-47
2023/05/13 08:48:34;;;;;;;6.20;3.47;;;17.60;99.90;;;;;;5095601;28;20080;-47
2023/05/13 08:51:01;;;;;;;5.40;3.25;;;17.60;99.90;;;;;;5095431;28;20048;-47
2023/05/13 08:53:27;;;;;;;;;;;17.60;99.90;;;;;;5094882;28;20479;-47
2023/05/13 08:55:53;;;;;;;5.53;2.80;;;17.70;99.90;;;;;;5095456;28;19920;-47
2023/05/13 08:58:19;;;;;;;5.60;2.85;;;17.70;99.90;;;;;;5095434;28;20048;-47
2023/05/13 09:00:47;;;;;;;5.47;2.83;;;17.70;99.90;;;;;;5095285;28;20123;-47
2023/05/13 09:03:13;;;;;;;7.03;3.30;;;17.80;99.90;;;;;;5095316;28;20054;-48
2023/05/13 09:05:40;;;;;;;;;;;17.80;99.90;;;;;;5095711;28;20510;-53
2023/05/13 09:08:08;;;;;;;5.00;2.83;;;17.80;99.90;;;;;;5095251;28;20366;-47
2023/05/13 09:10:33;;;;;;;5.95;2.67;;;17.90;99.90;;;;;;5095112;28;20082;-48
2023/05/13 09:13:00;;;;;;;6.28;2.88;;;17.90;99.90;;;;;;5095079;28;20452;-48
2023/05/13 09:15:27;;;;;;;6.20;2.50;;;18.00;99.90;;;;;;5094243;28;20055;-47
2023/05/13 09:18:04;;;;;;;7.32;2.75;;;18.00;99.90;;;;;;5094951;28;20052;-47
2023/05/13 09:20:30;;;;;;;;;;;18.00;99.90;;;;;;5095469;28;20075;-47
2023/05/13 09:23:12;;;;;;;6.75;4.30;;;18.00;99.90;;;;;;5094681;28;20385;-47
2023/05/13 09:25:38;;;;;;;7.75;3.97;;;18.10;99.90;;;;;;5094887;28;20063;-47
2023/05/13 09:28:06;;;;;;;5.13;2.90;;;18.10;99.90;;;;;;5094826;28;20083;-48
2023/05/13 09:30:39;;;;;;;6.65;3.40;;;18.10;99.90;;;;;;5094842;28;20048;-47
2023/05/13 09:33:06;;;;;;;6.60;3.47;;;18.10;99.90;;;;;;5094456;28;20054;-47
2023/05/13 09:35:33;;;;;;;7.20;3.47;;;18.20;99.90;;;;;;5094710;28;20135;-46
2023/05/13 09:37:58;;;;;;;6.38;3.40;;;18.20;99.90;;;;;;5093554;28;20040;-47
2023/05/13 09:40:24;;;;;;;6.60;3.45;;;18.30;99.90;;;;;;5094698;28;20047;-48
2023/05/13 09:42:50;;;;;;;5.72;3.20;;;18.30;99.90;;;;;;5094733;28;20483;-47
2023/05/13 09:45:16;;;;;;;6.80;3.50;;;18.30;99.90;;;;;;5094511;28;20043;-48
2023/05/13 09:47:42;;;;;;;6.82;4.03;;;18.40;99.90;;;;;;5094372;28;20055;-50
2023/05/13 09:50:10;;;;;;;10.13;3.88;;;18.40;99.90;;;;;;5094413;28;20046;-49
2023/05/13 09:52:37;;;;;;;8.45;4.00;;;18.40;99.90;;;;;;5094425;28;20052;-52
2023/05/13 09:55:07;;;;;;;5.82;3.45;;;18.40;99.90;;;;;;5094002;28;20055;-46
2023/05/13 09:57:34;;;;;;;7.63;4.10;;;18.50;99.90;;;;;;5094188;28;20047;-47
2023/05/13 10:00:00;;;;;;;;;;;18.50;99.90;;;;;;5094663;28;20054;-47
2023/05/13 10:02:27;;;;;;;6.22;3.10;;;18.50;99.90;;;;;;5093986;28;20014;-46
2023/05/13 10:04:54;;;;;;;7.18;3.50;;;18.50;99.90;;;;;;5094292;28;20055;-49
2023/05/13 10:07:24;;;;;;;5.47;3.60;;;18.60;99.90;;;;;;5094320;28;20476;-48
2023/05/13 10:09:59;;;;;;;6.57;3.80;;;18.60;99.90;;;;;;5094000;28;20095;-47
2023/05/13 10:12:25;;;;;;;6.30;3.75;;;18.60;99.90;;;;;;5094001;28;20402;-47
2023/05/13 10:14:52;;;;;;;7.30;4.15;;;18.70;99.90;;;;;;5093757;28;20052;-48
2023/05/13 10:17:23;;;;;;;6.85;3.53;;;18.70;99.90;;;;;;5094086;28;20101;-48
2023/05/13 10:19:50;;;;;;;6.68;3.42;;;18.80;99.90;;;;;;5093837;28;20079;-48
2023/05/13 10:22:28;;;;;;;6.88;3.70;;;18.90;99.90;;;;;;5092574;28;20044;-52
2023/05/13 10:24:58;;;;;;;5.95;3.47;;;18.90;99.90;;;;;;5093982;28;20044;-49
2023/05/13 10:27:29;;;;;;;6.85;3.08;;;19.00;99.90;;;;;;5093955;28;20394;-47
2023/05/13 10:30:00;;;;;;;6.78;3.65;;;19.00;99.90;;;;;;5092771;28;20049;-47
2023/05/13 10:32:28;;;;;;;5.15;2.75;;;19.20;99.90;;;;;;5093760;28;20066;-51
2023/05/13 10:35:03;;;;;;;5.40;3.10;;;19.30;99.90;;;;;;5092599;28;20052;-47
2023/05/13 10:37:57;;;;;;;7.65;3.40;;;19.40;99.90;;;;;;5093554;28;20127;-47
2023/05/13 10:40:23;;;;;;;5.75;3.45;;;19.50;99.90;;;;;;5093689;28;20047;-51
2023/05/13 10:43:05;;;;;;;8.75;4.07;;;19.60;99.90;;;;;;5093553;28;20048;-50
2023/05/13 10:45:32;;;;;;;4.88;3.03;;;19.70;99.90;;;;;;5093968;28;20404;-52
2023/05/13 10:48:05;;;;;;;6.65;3.80;;;19.70;99.90;;;;;;5093360;28;20048;-48
2023/05/13 10:50:34;;;;;;;6.43;3.88;;;19.80;99.90;;;;;;5093553;28;20109;-49
2023/05/13 10:53:02;;;;;;;7.45;3.60;;;19.90;99.90;;;;;;5093591;28;20380;-49
2023/05/13 10:55:28;;;;;;;6.22;3.55;;;20.00;99.90;;;;;;5093798;28;20044;-49
2023/05/13 10:58:02;;;;;;;6.28;3.80;;;20.00;99.90;;;;;;5093791;28;20075;-50
2023/05/13 11:00:31;;;;;;;6.13;3.70;;;20.10;99.90;;;;;;5093498;28;20051;-48
2023/05/13 11:03:07;;;;;;;6.50;3.65;;;20.10;99.90;;;;;;5093427;28;20055;-51
2023/05/13 11:05:33;;;;;;;6.32;3.80;;;20.20;99.90;;;;;;5094044;28;20077;-47
2023/05/13 11:07:59;;;;;;;;;;;20.20;99.90;;;;;;5095944;28;20118;-46
2023/05/13 11:10:28;;;;;;;10.65;4.35;;;20.30;99.90;;;;;;5097489;28;20060;-47
2023/05/13 11:13:15;;;;;;;6.00;3.50;;;20.40;99.90;;;;;;5097526;28;20510;-48
2023/05/13 11:15:44;;;;;;;6.47;4.00;;;20.40;99.90;;;;;;5097412;28;20518;-47
2023/05/13 11:18:11;;;;;;;8.13;4.05;;;20.50;99.90;;;;;;5097438;28;20101;-47
2023/05/13 11:20:37;;;;;;;6.40;3.42;;;20.50;99.90;;;;;;5096359;28;20052;-48
2023/05/13 11:23:03;;;;;;;8.43;4.20;;;20.60;99.90;;;;;;5097344;28;20048;-47
2023/05/13 11:25:29;;;;;;;7.93;4.20;;;20.60;99.90;;;;;;5097433;28;20506;-47
2023/05/13 11:27:54;;;;;;;9.18;4.57;;;20.60;99.90;;;;;;5096918;28;20044;-48
2023/05/13 11:30:25;;;;;;;7.72;4.60;;;20.60;99.90;;;;;;5097092;28;20360;-48
2023/05/13 11:32:56;;;;;;;9.30;4.80;;;20.60;99.90;;;;;;5097808;28;20082;-47
2023/05/13 11:35:23;;;;;;;6.93;4.55;;;20.60;99.90;;;;;;5097506;28;20113;-47
2023/05/13 11:37:49;;;;;;;8.07;4.80;;;20.60;99.90;;;;;;5097054;28;20044;-49
2023/05/13 11:40:29;;;;;;;7.45;4.60;;;20.60;99.90;;;;;;5096933;28;20036;-47
2023/05/13 11:42:55;;;;;;;8.88;4.93;;;20.70;99.90;;;;;;5096018;28;20540;-48
2023/05/13 11:45:23;;;;;;;7.93;4.63;;;20.70;99.90;;;;;;5096835;28;20066;-47
2023/05/13 11:47:49;;;;;;;7.70;4.53;;;20.70;99.90;;;;;;5096879;28;20048;-47
2023/05/13 11:50:20;;;;;;;;;;;20.70;99.90;;;;;;5097044;28;20391;-52
2023/05/13 11:52:55;;;;;;;11.77;5.15;;;20.70;99.90;;;;;;5096630;28;19920;-48
2023/05/13 11:55:28;;;;;;;7.95;4.38;;;20.70;99.90;;;;;;5096778;28;20044;-47
2023/05/13 11:57:55;;;;;;;6.82;4.15;;;20.80;99.90;;;;;;5096626;28;20051;-48
2023/05/13 12:00:31;;;;;;;5.97;3.80;;;20.90;99.90;;;;;;5096737;28;20094;-49
2023/05/13 12:02:57;;;;;;;9.20;4.43;;;21.00;99.90;;;;;;5096567;28;20040;-49
2023/05/13 12:05:24;;;;;;;6.78;4.30;;;21.10;99.90;;;;;;5096483;28;20127;-47
2023/05/13 12:07:50;;;;;;;9.18;3.97;;;21.10;99.90;;;;;;5096227;28;20052;-48
2023/05/13 12:10:15;;;;;;;10.70;4.43;;;21.10;99.90;;;;;;5096380;28;20120;-47
2023/05/13 12:12:44;;;;;;;6.97;4.30;;;21.20;99.90;;;;;;5096355;28;20486;-47
2023/05/13 12:15:15;;;;;;;7.38;4.72;;;21.20;99.90;;;;;;5096380;28;20044;-47
2023/05/13 12:17:41;;;;;;;12.05;4.65;;;21.20;99.90;;;;;;5096081;28;20502;-48
2023/05/13 12:20:07;;;;;;;6.60;3.80;;;21.20;99.90;;;;;;5095306;28;20127;-46
2023/05/13 12:22:37;;;;;;;8.32;4.13;;;21.20;99.90;;;;;;5095966;28;20130;-47
2023/05/13 12:25:33;;;;;;;6.38;3.95;;;21.20;99.90;;;;;;5096093;28;20044;-47
2023/05/13 12:28:09;;;;;;;8.73;4.43;;;21.20;99.90;;;;;;5095964;28;20047;-48
2023/05/13 12:30:40;;;;;;;7.27;3.87;;;21.20;99.90;;;;;;5095891;28;20119;-47
2023/05/13 12:33:17;;;;;;;6.88;3.83;;;21.30;99.90;;;;;;5096221;28;20078;-51
2023/05/13 12:35:45;;;;;;;7.28;3.67;;;21.30;99.90;;;;;;5096309;28;20051;-47
2023/05/13 12:38:16;;;;;;;4.80;2.85;;;21.30;99.90;;;;;;5095898;28;20400;-49
2023/05/13 12:40:41;;;;;;;5.70;3.50;;;21.40;99.90;;;;;;5094972;28;20063;-47
2023/05/13 12:43:09;;;;;;;5.97;3.28;;;21.40;99.90;;;;;;5095701;28;20040;-47
2023/05/13 12:45:38;;;;;;;5.57;3.30;;;21.40;99.90;;;;;;5094555;28;20048;-47
2023/05/13 12:48:04;;;;;;;5.90;3.38;;;21.50;99.90;;;;;;5095725;28;20165;-45